createdAt,value
2023-03-10T00:00:06.799Z,11.70
2023-03-10T00:01:06.953Z,12.30
2023-03-10T00:02:07.114Z,12.30
2023-03-10T00:03:07.296Z,12.30
2023-03-10T00:04:07.532Z,11.70
2023-03-10T00:05:07.652Z,12.60
2023-03-10T00:06:07.828Z,11.80
2023-03-10T00:07:07.977Z,12.50
2023-03-10T00:08:08.125Z,11.80
2023-03-10T00:09:08.344Z,12.00
2023-03-10T00:10:08.496Z,12.20
2023-03-10T00:11:08.653Z,11.80
2023-03-10T00:12:08.814Z,10.80
2023-03-10T00:13:08.979Z,11.60
2023-03-10T00:14:09.145Z,11.90
2023-03-10T00:15:09.300Z,11.40
2023-03-10T00:16:09.480Z,11.90
2023-03-10T00:17:09.655Z,12.10
2023-03-10T00:18:09.821Z,11.30
2023-03-10T00:19:10.038Z,11.00
2023-03-10T00:20:10.157Z,11.70
2023-03-10T00:21:10.321Z,11.10
2023-03-10T00:22:10.475Z,11.60
2023-03-10T00:23:10.646Z,11.10
2023-03-10T00:24:10.818Z,11.00
2023-03-10T00:25:10.974Z,11.50
2023-03-10T00:26:11.114Z,11.30
2023-03-10T00:27:11.278Z,10.70
2023-03-10T00:28:11.453Z,11.10
2023-03-10T00:29:11.618Z,10.70
2023-03-10T00:30:11.786Z,11.30
2023-03-10T00:31:12.020Z,11.40
2023-03-10T00:32:12.143Z,10.70
2023-03-10T00:33:12.295Z,11.10
2023-03-10T00:34:12.474Z,11.10
2023-03-10T00:35:12.621Z,11.00
2023-03-10T00:36:12.884Z,10.50
2023-03-10T00:37:12.970Z,10.50
2023-03-10T00:38:13.131Z,10.50
2023-03-10T00:39:13.294Z,11.00
2023-03-10T00:40:13.453Z,10.10
2023-03-10T00:41:13.614Z,10.60
2023-03-10T00:42:13.768Z,10.60
2023-03-10T00:43:13.971Z,10.80
2023-03-10T00:44:14.108Z,10.90
2023-03-10T00:45:14.256Z,11.10
2023-03-10T00:46:14.510Z,10.60
2023-03-10T00:47:14.618Z,10.30
2023-03-10T00:48:14.787Z,10.60
2023-03-10T00:49:14.939Z,11.00
2023-03-10T00:50:15.116Z,11.10
2023-03-10T00:51:15.269Z,10.90
2023-03-10T00:52:15.484Z,10.40
2023-03-10T00:53:15.650Z,11.10
2023-03-10T00:54:15.812Z,11.10
2023-03-10T00:55:15.984Z,10.30
2023-03-10T00:56:16.138Z,10.80
2023-03-10T00:57:16.298Z,11.10
2023-03-10T00:58:16.485Z,10.40
2023-03-10T00:59:16.630Z,10.70
2023-03-10T01:00:16.810Z,11.50
2023-03-10T01:01:17.008Z,10.60
2023-03-10T01:02:17.144Z,10.70
2023-03-10T01:03:17.300Z,10.90
2023-03-10T01:04:17.511Z,11.10
2023-03-10T01:05:17.639Z,10.20
2023-03-10T01:06:17.815Z,10.80
2023-03-10T01:07:18.027Z,10.30
2023-03-10T01:08:18.170Z,11.00
2023-03-10T01:09:18.360Z,10.30
2023-03-10T01:10:18.528Z,11.00
2023-03-10T01:11:18.685Z,10.60
2023-03-10T01:12:18.871Z,10.40
2023-03-10T01:13:19.012Z,10.60
2023-03-10T01:14:19.182Z,10.90
2023-03-10T01:15:19.335Z,10.90
2023-03-10T01:16:19.556Z,10.60
2023-03-10T01:17:19.672Z,10.90
2023-03-10T01:18:19.835Z,11.10
2023-03-10T01:19:19.994Z,10.50
2023-03-10T01:20:20.163Z,10.50
2023-03-10T01:21:20.315Z,11.20
2023-03-10T01:22:20.499Z,11.00
2023-03-10T01:23:20.660Z,10.50
2023-03-10T01:24:20.814Z,11.00
2023-03-10T01:25:20.975Z,10.30
2023-03-10T01:26:21.143Z,11.10
2023-03-10T01:27:21.318Z,10.70
2023-03-10T01:28:21.480Z,10.70
2023-03-10T01:29:21.635Z,10.10
2023-03-10T01:30:21.820Z,10.40
2023-03-10T01:31:22.043Z,10.50
2023-03-10T01:32:22.191Z,10.70
2023-03-10T01:33:22.299Z,10.20
2023-03-10T01:34:22.467Z,10.70
2023-03-10T01:35:22.647Z,11.10
2023-03-10T01:36:22.806Z,10.70
2023-03-10T01:37:22.956Z,10.60
2023-03-10T01:38:23.162Z,9.70
2023-03-10T01:39:23.354Z,10.20
2023-03-10T01:40:23.506Z,10.00
2023-03-10T01:41:23.690Z,10.10
2023-03-10T01:42:23.849Z,10.30
2023-03-10T01:43:24.005Z,10.20
2023-03-10T01:44:24.185Z,10.10
2023-03-10T01:45:24.337Z,9.80
2023-03-10T01:46:24.541Z,9.80
2023-03-10T01:47:24.712Z,10.40
2023-03-10T01:48:24.883Z,10.20
2023-03-10T01:49:25.038Z,10.30
2023-03-10T01:50:25.208Z,9.70
2023-03-10T01:51:25.374Z,10.40
2023-03-10T01:52:25.584Z,9.80
2023-03-10T01:53:25.735Z,10.40
2023-03-10T01:54:25.902Z,10.10
2023-03-10T01:55:26.046Z,10.40
2023-03-10T01:56:26.228Z,9.80
2023-03-10T01:57:26.372Z,10.30
2023-03-10T01:58:26.537Z,10.20
2023-03-10T01:59:26.698Z,10.20
2023-03-10T02:00:26.916Z,9.60
2023-03-10T02:01:27.068Z,9.80
2023-03-10T02:02:27.263Z,10.10
2023-03-10T02:03:27.388Z,9.70
2023-03-10T02:04:27.579Z,10.40
2023-03-10T02:05:27.721Z,9.50
2023-03-10T02:06:27.918Z,10.00
2023-03-10T02:07:28.065Z,9.90
2023-03-10T02:08:28.249Z,9.40
2023-03-10T02:09:28.453Z,10.00
2023-03-10T02:10:28.602Z,9.60
2023-03-10T02:11:28.767Z,10.60
2023-03-10T02:12:28.955Z,9.30
2023-03-10T02:13:29.091Z,10.00
2023-03-10T02:14:29.270Z,10.60
2023-03-10T02:15:29.421Z,10.10
2023-03-10T02:16:29.620Z,10.10
2023-03-10T02:17:29.852Z,10.10
2023-03-10T02:18:29.963Z,9.30
2023-03-10T02:19:30.165Z,9.90
2023-03-10T02:20:30.341Z,10.10
2023-03-10T02:21:30.498Z,10.00
2023-03-10T02:22:30.670Z,10.00
2023-03-10T02:23:30.817Z,9.70
2023-03-10T02:24:31.040Z,10.00
2023-03-10T02:25:31.184Z,9.60
2023-03-10T02:26:31.381Z,9.20
2023-03-10T02:27:31.561Z,9.80
2023-03-10T02:28:31.760Z,9.30
2023-03-10T02:29:31.918Z,9.60
2023-03-10T02:30:32.062Z,9.40
2023-03-10T02:31:32.272Z,9.90
2023-03-10T02:32:32.457Z,10.10
2023-03-10T02:33:32.606Z,10.00
2023-03-10T02:34:32.779Z,9.40
2023-03-10T02:35:32.990Z,9.30
2023-03-10T02:36:33.125Z,9.50
2023-03-10T02:37:33.283Z,9.00
2023-03-10T02:38:33.476Z,9.60
2023-03-10T02:39:33.663Z,8.90
2023-03-10T02:40:33.967Z,9.20
2023-03-10T02:41:34.018Z,9.00
2023-03-10T02:42:34.226Z,9.10
2023-03-10T02:43:34.382Z,9.20
2023-03-10T02:44:34.596Z,9.30
2023-03-10T02:45:34.803Z,9.50
2023-03-10T02:46:34.914Z,9.50
2023-03-10T02:47:35.048Z,8.90
2023-03-10T02:48:35.244Z,8.70
2023-03-10T02:49:35.441Z,8.90
2023-03-10T02:50:35.586Z,8.60
2023-03-10T02:51:35.772Z,8.20
2023-03-10T02:52:35.990Z,8.80
2023-03-10T02:53:36.105Z,8.90
2023-03-10T02:54:36.313Z,8.60
2023-03-10T02:55:36.457Z,9.30
2023-03-10T02:56:36.642Z,8.50
2023-03-10T02:57:36.819Z,9.00
2023-03-10T02:58:36.996Z,8.40
2023-03-10T02:59:37.139Z,8.10
2023-03-10T03:00:37.343Z,8.70
2023-03-10T03:01:37.472Z,8.10
2023-03-10T03:02:37.667Z,9.00
2023-03-10T03:03:37.917Z,8.30
2023-03-10T03:04:38.043Z,8.20
2023-03-10T03:05:38.212Z,8.30
2023-03-10T03:06:38.414Z,8.70
2023-03-10T03:07:38.594Z,8.10
2023-03-10T03:08:38.788Z,8.40
2023-03-10T03:09:38.937Z,7.50
2023-03-10T03:10:39.124Z,8.40
2023-03-10T03:11:39.294Z,8.10
2023-03-10T03:12:39.503Z,8.30
2023-03-10T03:13:39.649Z,8.00
2023-03-10T03:14:39.843Z,7.70
2023-03-10T03:15:40.036Z,7.70
2023-03-10T03:16:40.232Z,7.80
2023-03-10T03:17:40.378Z,7.80
2023-03-10T03:18:40.513Z,7.60
2023-03-10T03:19:40.706Z,7.80
2023-03-10T03:20:40.888Z,7.80
2023-03-10T03:21:41.054Z,7.30
2023-03-10T03:22:41.259Z,7.60
2023-03-10T03:23:41.428Z,7.80
2023-03-10T03:24:41.619Z,7.60
2023-03-10T03:25:41.814Z,7.60
2023-03-10T03:26:41.990Z,7.10
2023-03-10T03:27:42.124Z,7.50
2023-03-10T03:28:42.331Z,7.60
2023-03-10T03:29:42.540Z,7.10
2023-03-10T03:30:42.680Z,7.30
2023-03-10T03:31:42.915Z,7.30
2023-03-10T03:32:43.128Z,7.50
2023-03-10T03:33:43.181Z,7.70
2023-03-10T03:34:43.365Z,7.10
2023-03-10T03:35:43.553Z,7.30
2023-03-10T03:36:43.766Z,7.20
2023-03-10T03:37:43.915Z,7.70
2023-03-10T03:38:44.102Z,7.00
2023-03-10T03:39:44.381Z,6.70
2023-03-10T03:40:44.436Z,7.20
2023-03-10T03:41:44.625Z,7.00
2023-03-10T03:42:44.806Z,7.20
2023-03-10T03:43:44.979Z,6.90
2023-03-10T03:44:45.177Z,6.70
2023-03-10T03:45:45.428Z,6.90
2023-03-10T03:46:45.531Z,7.10
2023-03-10T03:47:45.673Z,7.00
2023-03-10T03:48:45.860Z,7.30
2023-03-10T03:49:46.046Z,7.10
2023-03-10T03:50:46.218Z,5.90
2023-03-10T03:51:46.404Z,7.00
2023-03-10T03:52:46.593Z,6.60
2023-03-10T03:53:46.779Z,6.80
2023-03-10T03:54:46.952Z,6.50
2023-03-10T03:55:47.130Z,6.50
2023-03-10T03:56:47.393Z,6.70
2023-03-10T03:57:47.505Z,6.50
2023-03-10T03:58:47.691Z,6.30
2023-03-10T03:59:47.860Z,7.10
2023-03-10T04:00:50.434Z,6.80
2023-03-10T04:01:48.240Z,7.40
2023-03-10T04:02:48.453Z,6.40
2023-03-10T04:03:48.646Z,6.40
2023-03-10T04:04:48.732Z,6.50
2023-03-10T04:05:48.921Z,6.80
2023-03-10T04:06:49.113Z,6.50
2023-03-10T04:07:49.262Z,6.10
2023-03-10T04:08:49.459Z,6.40
2023-03-10T04:09:49.629Z,6.50
2023-03-10T04:10:49.814Z,6.40
2023-03-10T04:11:49.999Z,6.60
2023-03-10T04:12:50.140Z,6.50
2023-03-10T04:13:50.327Z,6.50
2023-03-10T04:14:50.512Z,6.00
2023-03-10T04:15:50.720Z,6.20
2023-03-10T04:16:50.906Z,6.00
2023-03-10T04:17:51.054Z,6.20
2023-03-10T04:18:51.258Z,7.10
2023-03-10T04:20:06.040Z,6.30
2023-03-10T04:20:52.579Z,6.40
2023-03-10T04:21:51.776Z,6.20
2023-03-10T04:22:51.922Z,6.20
2023-03-10T04:23:52.096Z,6.10
2023-03-10T04:24:52.295Z,6.10
2023-03-10T04:25:52.456Z,6.60
2023-03-10T04:26:52.663Z,6.30
2023-03-10T04:27:52.820Z,6.50
2023-03-10T04:28:53.033Z,6.50
2023-03-10T04:29:53.142Z,6.80
2023-03-10T04:30:53.345Z,6.50
2023-03-10T04:32:04.920Z,6.20
2023-03-10T04:32:54.770Z,6.00
2023-03-10T04:33:53.852Z,6.70
2023-03-10T04:34:54.022Z,6.10
2023-03-10T04:35:54.216Z,5.90
2023-03-10T04:36:54.419Z,6.30
2023-03-10T04:37:54.553Z,6.00
2023-03-10T04:38:54.741Z,6.00
2023-03-10T04:39:54.916Z,6.20
2023-03-10T04:40:55.117Z,6.00
2023-03-10T04:41:55.303Z,6.20
2023-03-10T04:42:55.493Z,6.60
2023-03-10T04:43:55.640Z,6.30
2023-03-10T04:44:55.821Z,6.20
2023-03-10T04:45:56.064Z,6.50
2023-03-10T04:46:56.175Z,6.10
2023-03-10T04:47:56.384Z,6.00
2023-03-10T04:48:56.527Z,5.90
2023-03-10T04:49:56.717Z,6.10
2023-03-10T04:50:56.920Z,6.20
2023-03-10T04:51:57.100Z,5.70
2023-03-10T04:52:57.267Z,6.30
2023-03-10T04:53:57.452Z,6.30
2023-03-10T04:54:57.633Z,6.30
2023-03-10T04:55:57.828Z,6.20
2023-03-10T04:56:58.006Z,6.10
2023-03-10T04:57:58.153Z,5.90
2023-03-10T04:58:58.316Z,5.70
2023-03-10T05:00:00.953Z,5.70
2023-03-10T05:01:03.353Z,6.00
2023-03-10T05:01:59.880Z,5.80
2023-03-10T05:02:58.998Z,5.60
2023-03-10T05:03:59.219Z,5.90
2023-03-10T05:04:59.345Z,5.80
2023-03-10T05:05:59.557Z,5.90
2023-03-10T05:06:59.697Z,5.70
2023-03-10T05:07:59.875Z,5.60
2023-03-10T05:09:00.048Z,5.90
2023-03-10T05:10:00.238Z,6.10
2023-03-10T05:11:00.416Z,5.20
2023-03-10T05:12:00.592Z,6.00
2023-03-10T05:13:00.767Z,5.40
2023-03-10T05:14:00.936Z,5.30
2023-03-10T05:15:01.125Z,5.30
2023-03-10T05:16:01.313Z,5.30
2023-03-10T05:17:01.451Z,5.40
2023-03-10T05:18:01.667Z,5.70
2023-03-10T05:19:01.807Z,5.60
2023-03-10T05:20:01.991Z,5.40
2023-03-10T05:21:02.175Z,5.60
2023-03-10T05:22:02.347Z,5.70
2023-03-10T05:23:02.530Z,5.50
2023-03-10T05:24:02.714Z,5.70
2023-03-10T05:25:02.886Z,5.60
2023-03-10T05:26:03.048Z,5.30
2023-03-10T05:27:03.212Z,5.10
2023-03-10T05:28:03.404Z,5.30
2023-03-10T05:29:03.593Z,5.10
2023-03-10T05:30:03.765Z,5.10
2023-03-10T05:31:04.037Z,5.20
2023-03-10T05:32:04.109Z,5.20
2023-03-10T05:33:04.307Z,5.40
2023-03-10T05:34:04.500Z,5.70
2023-03-10T05:35:04.633Z,5.00
2023-03-10T05:36:04.845Z,5.10
2023-03-10T05:37:04.988Z,5.30
2023-03-10T05:38:05.189Z,5.30
2023-03-10T05:39:05.313Z,5.30
2023-03-10T05:40:05.489Z,5.20
2023-03-10T05:41:05.653Z,5.80
2023-03-10T05:42:05.868Z,5.60
2023-03-10T05:43:06.021Z,5.50
2023-03-10T05:44:06.164Z,5.10
2023-03-10T05:45:06.353Z,5.70
2023-03-10T05:46:06.554Z,6.00
2023-03-10T05:47:06.778Z,5.40
2023-03-10T05:48:06.874Z,5.30
2023-03-10T05:49:07.056Z,5.50
2023-03-10T05:50:07.232Z,5.40
2023-03-10T05:51:07.386Z,5.50
2023-03-10T05:52:07.583Z,5.70
2023-03-10T05:53:07.777Z,5.50
2023-03-10T05:54:07.934Z,5.30
2023-03-10T05:55:08.123Z,5.90
2023-03-10T05:56:08.284Z,6.00
2023-03-10T05:57:08.481Z,5.40
2023-03-10T05:58:08.663Z,5.80
2023-03-10T05:59:08.815Z,5.10
2023-03-10T06:00:09.005Z,5.60
2023-03-10T06:01:09.184Z,5.60
2023-03-10T06:02:09.364Z,5.30
2023-03-10T06:03:09.594Z,5.60
2023-03-10T06:04:09.745Z,5.60
2023-03-10T06:05:11.391Z,5.20
2023-03-10T06:06:10.093Z,5.50
2023-03-10T06:07:10.261Z,5.60
2023-03-10T06:08:10.425Z,5.60
2023-03-10T06:09:10.574Z,5.50
2023-03-10T06:10:10.796Z,5.30
2023-03-10T06:11:10.926Z,5.40
2023-03-10T06:12:11.137Z,5.60
2023-03-10T06:13:11.287Z,5.50
2023-03-10T06:14:11.478Z,5.60
2023-03-10T06:15:11.646Z,6.00
2023-03-10T06:16:11.961Z,5.50
2023-03-10T06:17:11.997Z,5.60
2023-03-10T06:18:12.162Z,5.70
2023-03-10T06:19:12.327Z,5.90
2023-03-10T06:20:12.510Z,5.50
2023-03-10T06:21:12.662Z,5.60
2023-03-10T06:22:12.864Z,5.30
2023-03-10T06:23:13.018Z,6.10
2023-03-10T06:24:13.189Z,5.80
2023-03-10T06:25:13.363Z,5.50
2023-03-10T06:26:13.740Z,5.50
2023-03-10T06:27:13.734Z,5.80
2023-03-10T06:28:13.894Z,5.70
2023-03-10T06:29:14.041Z,5.90
2023-03-10T06:30:14.213Z,5.20
2023-03-10T06:31:14.484Z,5.90
2023-03-10T06:32:14.663Z,5.80
2023-03-10T06:33:14.750Z,5.80
2023-03-10T06:34:14.951Z,5.80
2023-03-10T06:35:15.107Z,5.60
2023-03-10T06:36:15.370Z,5.70
2023-03-10T06:37:15.498Z,5.80
2023-03-10T06:38:15.659Z,5.70
2023-03-10T06:39:15.813Z,5.90
2023-03-10T06:40:15.978Z,5.60
2023-03-10T06:41:16.139Z,5.80
2023-03-10T06:42:16.352Z,5.70
2023-03-10T06:43:16.484Z,5.60
2023-03-10T06:44:16.647Z,5.70
2023-03-10T06:45:16.827Z,5.60
2023-03-10T06:46:17.105Z,5.50
2023-03-10T06:47:17.201Z,6.20
2023-03-10T06:48:17.359Z,6.00
2023-03-10T06:49:17.539Z,5.60
2023-03-10T06:50:17.705Z,5.90
2023-03-10T06:51:17.888Z,5.70
2023-03-10T06:52:18.067Z,5.70
2023-03-10T06:53:18.214Z,5.60
2023-03-10T06:54:18.413Z,5.90
2023-03-10T06:55:18.574Z,5.60
2023-03-10T06:56:18.813Z,5.60
2023-03-10T06:57:20.998Z,6.00
2023-03-10T06:58:19.121Z,5.90
2023-03-10T06:59:19.303Z,6.50
2023-03-10T07:00:19.515Z,5.10
2023-03-10T07:01:19.733Z,6.00
2023-03-10T07:02:19.862Z,5.70
2023-03-10T07:03:19.986Z,5.80
2023-03-10T07:04:20.187Z,5.80
2023-03-10T07:05:20.341Z,6.00
2023-03-10T07:06:20.531Z,5.50
2023-03-10T07:07:20.706Z,5.40
2023-03-10T07:08:20.890Z,5.70
2023-03-10T07:09:21.069Z,5.60
2023-03-10T07:10:21.240Z,5.60
2023-03-10T07:11:21.409Z,5.70
2023-03-10T07:12:21.583Z,5.70
2023-03-10T07:13:21.765Z,5.80
2023-03-10T07:14:21.912Z,5.60
2023-03-10T07:15:22.093Z,5.80
2023-03-10T07:16:22.418Z,5.80
2023-03-10T07:17:22.457Z,5.80
2023-03-10T07:18:22.654Z,5.60
2023-03-10T07:19:22.790Z,5.60
2023-03-10T07:20:22.969Z,5.90
2023-03-10T07:21:23.154Z,5.80
2023-03-10T07:22:23.327Z,5.20
2023-03-10T07:23:23.471Z,5.90
2023-03-10T07:24:23.684Z,6.20
2023-03-10T07:25:23.843Z,5.90
2023-03-10T07:26:24.049Z,6.20
2023-03-10T07:27:24.202Z,6.30
2023-03-10T07:28:24.374Z,6.20
2023-03-10T07:29:24.546Z,5.90
2023-03-10T07:30:24.732Z,6.20
2023-03-10T07:31:24.935Z,6.10
2023-03-10T07:32:25.098Z,5.90
2023-03-10T07:33:25.247Z,6.60
2023-03-10T07:34:25.415Z,6.20
2023-03-10T07:35:25.593Z,6.20
2023-03-10T07:36:25.824Z,6.00
2023-03-10T07:37:25.944Z,6.00
2023-03-10T07:38:26.139Z,6.40
2023-03-10T07:39:26.304Z,6.20
2023-03-10T07:40:26.492Z,6.00
2023-03-10T07:41:26.685Z,6.80
2023-03-10T07:42:26.863Z,6.10
2023-03-10T07:43:27.033Z,6.90
2023-03-10T07:44:27.199Z,6.30
2023-03-10T07:45:27.382Z,6.50
2023-03-10T07:46:27.659Z,6.80
2023-03-10T07:47:27.725Z,6.70
2023-03-10T07:48:27.913Z,6.20
2023-03-10T07:49:28.076Z,6.20
2023-03-10T07:50:28.323Z,6.40
2023-03-10T07:51:28.447Z,6.50
2023-03-10T07:52:28.615Z,6.60
2023-03-10T07:53:28.789Z,6.50
2023-03-10T07:54:28.974Z,6.20
2023-03-10T07:55:29.149Z,6.80
2023-03-10T07:56:29.328Z,6.60
2023-03-10T07:57:29.488Z,6.40
2023-03-10T07:58:29.665Z,6.80
2023-03-10T07:59:29.849Z,6.60
2023-03-10T08:00:30.048Z,6.80
2023-03-10T08:01:30.202Z,7.40
2023-03-10T08:02:30.385Z,7.00
2023-03-10T08:03:30.572Z,6.80
2023-03-10T08:04:30.909Z,6.60
2023-03-10T08:05:30.938Z,7.00
2023-03-10T08:06:31.103Z,7.60
2023-03-10T08:07:31.270Z,7.00
2023-03-10T08:08:31.444Z,7.90
2023-03-10T08:09:31.621Z,7.00
2023-03-10T08:10:31.845Z,7.00
2023-03-10T08:11:31.976Z,4.90
2023-03-10T08:12:32.171Z,4.60
2023-03-10T08:13:32.389Z,4.70
2023-03-10T08:14:32.536Z,4.60
2023-03-10T08:15:32.733Z,5.80
2023-03-10T08:16:32.948Z,6.90
2023-03-10T08:17:33.060Z,5.30
2023-03-10T08:18:33.224Z,5.70
2023-03-10T08:19:33.376Z,5.40
2023-03-10T08:20:33.574Z,5.60
2023-03-10T08:21:33.725Z,6.40
2023-03-10T08:22:33.910Z,5.80
2023-03-10T08:23:34.090Z,6.00
2023-03-10T08:24:34.266Z,6.20
2023-03-10T08:25:34.466Z,6.10
2023-03-10T08:26:34.616Z,6.10
2023-03-10T08:27:35.418Z,6.90
2023-03-10T08:28:34.950Z,7.60
2023-03-10T08:29:35.382Z,15.10
2023-03-10T08:30:35.429Z,12.60
2023-03-10T08:31:35.552Z,8.30
2023-03-10T08:32:35.724Z,6.20
2023-03-10T08:33:36.181Z,7.80
2023-03-10T08:34:36.624Z,7.00
2023-03-10T08:35:36.239Z,6.60
2023-03-10T08:36:36.465Z,6.30
2023-03-10T08:37:36.572Z,6.20
2023-03-10T08:38:36.761Z,6.70
2023-03-10T08:39:36.919Z,5.80
2023-03-10T08:40:37.075Z,5.50
2023-03-10T08:41:37.499Z,6.00
2023-03-10T08:42:37.413Z,5.80
2023-03-10T08:43:37.565Z,6.10
2023-03-10T08:44:37.780Z,6.00
2023-03-10T08:45:37.898Z,5.70
2023-03-10T08:46:38.124Z,5.60
2023-03-10T08:47:38.231Z,5.80
2023-03-10T08:48:39.726Z,6.20
2023-03-10T08:49:38.639Z,5.40
2023-03-10T08:50:38.793Z,5.90
2023-03-10T08:51:38.960Z,5.70
2023-03-10T08:52:39.129Z,5.80
2023-03-10T08:53:39.298Z,6.40
2023-03-10T08:54:39.462Z,4.90
2023-03-10T08:55:39.629Z,5.80
2023-03-10T08:56:39.805Z,5.30
2023-03-10T08:57:39.994Z,5.30
2023-03-10T08:58:40.142Z,5.10
2023-03-10T08:59:40.358Z,5.20
2023-03-10T09:00:40.517Z,5.00
2023-03-10T09:01:40.748Z,5.10
2023-03-10T09:02:40.876Z,5.30
2023-03-10T09:03:41.145Z,5.20
2023-03-10T09:04:41.202Z,4.90
2023-03-10T09:05:41.343Z,4.80
2023-03-10T09:06:41.524Z,4.30
2023-03-10T09:07:41.796Z,4.70
2023-03-10T09:08:41.826Z,5.30
2023-03-10T09:09:42.016Z,5.20
2023-03-10T09:10:42.175Z,5.80
2023-03-10T09:11:42.349Z,5.30
2023-03-10T09:12:42.504Z,4.80
2023-03-10T09:13:42.687Z,4.70
2023-03-10T09:14:42.861Z,5.30
2023-03-10T09:15:43.030Z,4.90
2023-03-10T09:16:43.234Z,4.30
2023-03-10T09:17:43.379Z,4.50
2023-03-10T09:18:43.608Z,4.40
2023-03-10T09:19:43.736Z,4.30
2023-03-10T09:20:43.896Z,4.40
2023-03-10T09:21:44.101Z,4.40
2023-03-10T09:22:44.232Z,4.30
2023-03-10T09:23:44.407Z,4.30
2023-03-10T09:24:44.555Z,3.90
2023-03-10T09:25:44.767Z,4.10
2023-03-10T09:26:45.100Z,4.00
2023-03-10T09:27:46.728Z,3.80
2023-03-10T09:28:45.269Z,3.90
2023-03-10T09:30:45.549Z,3.70
2023-03-10T09:31:45.801Z,3.80
2023-03-10T09:32:45.944Z,3.60
2023-03-10T09:33:48.238Z,2.80
2023-03-10T09:34:46.245Z,2.70
2023-03-10T09:35:52.980Z,2.70
2023-03-10T09:36:47.548Z,2.90
2023-03-10T09:37:46.731Z,2.80
2023-03-10T09:38:46.866Z,2.50
2023-03-10T09:39:47.072Z,2.40
2023-03-10T09:40:47.234Z,2.10
2023-03-10T09:41:47.403Z,2.00
2023-03-10T09:42:47.617Z,2.30
2023-03-10T09:43:47.767Z,2.10
2023-03-10T09:44:47.968Z,1.90
2023-03-10T09:45:48.127Z,2.20
2023-03-10T09:46:48.279Z,2.10
2023-03-10T09:47:48.507Z,2.20
2023-03-10T09:48:48.627Z,1.60
2023-03-10T09:49:50.689Z,1.70
2023-03-10T09:50:48.976Z,1.60
2023-03-10T09:51:49.144Z,1.90
2023-03-10T09:52:49.310Z,1.60
2023-03-10T09:53:49.853Z,1.80
2023-03-10T09:54:49.659Z,2.00
2023-03-10T09:55:49.861Z,1.60
2023-03-10T09:56:50.000Z,1.50
2023-03-10T09:57:50.204Z,1.40
2023-03-10T09:58:50.349Z,1.50
2023-03-10T09:59:50.515Z,1.30
2023-03-10T10:00:50.718Z,1.40
2023-03-10T10:01:50.861Z,1.50
2023-03-10T10:02:51.088Z,1.40
2023-03-10T10:03:53.368Z,1.50
2023-03-10T10:04:51.471Z,1.80
2023-03-10T10:05:51.587Z,1.40
2023-03-10T10:06:51.743Z,1.30
2023-03-10T10:07:51.954Z,1.30
2023-03-10T10:09:03.636Z,1.20
2023-03-10T10:09:53.332Z,1.50
2023-03-10T10:10:52.451Z,1.20
2023-03-10T10:11:52.610Z,1.30
2023-03-10T10:12:52.783Z,1.30
2023-03-10T10:13:52.982Z,1.30
2023-03-10T10:14:57.412Z,1.40
2023-03-10T10:16:07.323Z,1.20
2023-03-10T10:16:54.537Z,1.30
2023-03-10T10:17:58.525Z,1.20
2023-03-10T10:18:54.813Z,1.10
2023-03-10T10:19:53.941Z,1.10
2023-03-10T10:20:54.232Z,1.20
2023-03-10T10:21:54.268Z,1.30
2023-03-10T10:22:54.426Z,1.30
2023-03-10T10:23:54.596Z,1.40
2023-03-10T10:24:54.764Z,1.50
2023-03-10T10:25:54.958Z,1.70
2023-03-10T10:26:55.112Z,2.20
2023-03-10T10:27:55.348Z,2.10
2023-03-10T10:28:55.504Z,1.90
2023-03-10T10:29:55.642Z,2.10
2023-03-10T10:30:55.857Z,2.10
2023-03-10T10:31:56.002Z,2.10
2023-03-10T10:32:56.203Z,2.00
2023-03-10T10:33:56.390Z,2.40
2023-03-10T10:34:56.535Z,2.40
2023-03-10T10:35:56.743Z,2.70
2023-03-10T10:36:56.847Z,2.60
2023-03-10T10:37:57.016Z,2.50
2023-03-10T10:38:57.247Z,2.40
2023-03-10T10:39:57.388Z,2.20
2023-03-10T10:40:57.574Z,2.30
2023-03-10T10:41:57.791Z,2.50
2023-03-10T10:42:57.872Z,2.50
2023-03-10T10:43:58.094Z,2.30
2023-03-10T10:44:58.254Z,2.60
2023-03-10T10:45:58.444Z,2.60
2023-03-10T10:46:58.590Z,2.70
2023-03-10T10:47:58.775Z,2.90
2023-03-10T10:48:59.383Z,2.80
2023-03-10T10:49:59.166Z,3.00
2023-03-10T10:50:59.359Z,2.90
2023-03-10T10:51:59.494Z,2.60
2023-03-10T10:52:59.636Z,2.40
2023-03-10T10:53:59.846Z,2.10
2023-03-10T10:55:00.014Z,2.50
2023-03-10T10:56:00.176Z,2.80
2023-03-10T10:57:00.361Z,2.70
2023-03-10T10:58:01.782Z,2.70
2023-03-10T10:59:00.693Z,2.90
2023-03-10T11:00:00.858Z,3.10
2023-03-10T11:01:01.128Z,2.90
2023-03-10T11:02:01.389Z,2.90
2023-03-10T11:03:01.368Z,3.10
2023-03-10T11:04:01.575Z,2.80
2023-03-10T11:05:01.742Z,3.70
2023-03-10T11:06:01.934Z,3.50
2023-03-10T11:07:02.112Z,3.40
2023-03-10T11:08:02.304Z,3.40
2023-03-10T11:09:02.473Z,3.60
2023-03-10T11:10:02.640Z,3.40
2023-03-10T11:11:02.802Z,3.10
2023-03-10T11:12:03.013Z,3.50
2023-03-10T11:13:03.182Z,3.40
2023-03-10T11:14:03.353Z,3.20
2023-03-10T11:15:03.507Z,3.40
2023-03-10T11:16:03.777Z,3.20
2023-03-10T11:17:03.888Z,3.70
2023-03-10T11:18:04.060Z,3.90
2023-03-10T11:19:04.194Z,3.70
2023-03-10T11:20:04.345Z,4.00
2023-03-10T11:21:04.542Z,4.50
2023-03-10T11:22:04.724Z,4.10
2023-03-10T11:23:04.983Z,4.10
2023-03-10T11:24:05.060Z,3.30
2023-03-10T11:25:05.245Z,3.60
2023-03-10T11:26:05.452Z,4.00
2023-03-10T11:27:05.603Z,3.60
2023-03-10T11:28:05.801Z,3.70
2023-03-10T11:29:05.990Z,3.80
2023-03-10T11:30:06.165Z,3.80
2023-03-10T11:31:06.321Z,3.50
2023-03-10T11:32:06.478Z,3.90
2023-03-10T11:33:06.646Z,4.80
2023-03-10T11:34:06.812Z,4.70
2023-03-10T11:35:06.994Z,5.00
2023-03-10T11:36:07.248Z,3.90
2023-03-10T11:37:07.374Z,4.80
2023-03-10T11:38:07.572Z,5.00
2023-03-10T11:39:07.731Z,4.90
2023-03-10T11:40:08.009Z,5.00
2023-03-10T11:41:08.105Z,4.90
2023-03-10T11:42:08.262Z,5.40
2023-03-10T11:43:08.440Z,5.10
2023-03-10T11:44:08.612Z,4.80
2023-03-10T11:45:08.788Z,5.30
2023-03-10T11:46:09.005Z,5.30
2023-03-10T11:47:09.178Z,5.10
2023-03-10T11:48:09.344Z,5.10
2023-03-10T11:49:09.496Z,5.10
2023-03-10T11:50:09.698Z,5.20
2023-03-10T11:51:09.865Z,4.80
2023-03-10T11:52:10.074Z,5.30
2023-03-10T11:53:10.235Z,5.00
2023-03-10T11:54:10.400Z,5.40
2023-03-10T11:55:10.583Z,5.00
2023-03-10T11:56:10.836Z,5.50
2023-03-10T11:57:10.966Z,5.70
2023-03-10T11:58:11.117Z,5.80
2023-03-10T11:59:11.305Z,5.90
2023-03-10T12:00:11.505Z,5.50
2023-03-10T12:01:11.667Z,5.70
2023-03-10T12:02:11.876Z,5.80
2023-03-10T12:03:12.099Z,5.00
2023-03-10T12:04:12.228Z,5.20
2023-03-10T12:05:12.400Z,5.10
2023-03-10T12:06:12.564Z,5.60
2023-03-10T12:07:12.730Z,5.30
2023-03-10T12:08:12.916Z,5.30
2023-03-10T12:09:13.062Z,3.80
2023-03-10T12:10:13.251Z,4.30
2023-03-10T12:11:13.411Z,4.30
2023-03-10T12:12:13.600Z,4.80
2023-03-10T12:13:13.782Z,4.80
2023-03-10T12:14:13.939Z,4.80
2023-03-10T12:15:14.102Z,3.90
2023-03-10T12:16:14.316Z,4.10
2023-03-10T12:17:14.443Z,4.20
2023-03-10T12:18:14.631Z,4.70
2023-03-10T12:19:14.782Z,4.40
2023-03-10T12:20:14.963Z,5.00
2023-03-10T12:21:15.135Z,4.60
2023-03-10T12:22:15.289Z,4.20
2023-03-10T12:23:15.432Z,4.60
2023-03-10T12:24:15.634Z,5.00
2023-03-10T12:25:15.783Z,4.90
2023-03-10T12:26:15.992Z,5.40
2023-03-10T12:27:16.117Z,5.10
2023-03-10T12:28:16.447Z,5.10
2023-03-10T12:29:16.486Z,6.00
2023-03-10T12:30:16.675Z,5.40
2023-03-10T12:31:16.949Z,4.90
2023-03-10T12:32:17.087Z,4.90
2023-03-10T12:33:17.200Z,4.00
2023-03-10T12:34:17.395Z,2.60
2023-03-10T12:35:17.544Z,3.20
2023-03-10T12:36:17.747Z,3.00
2023-03-10T12:37:17.905Z,3.10
2023-03-10T12:38:18.054Z,3.00
2023-03-10T12:39:18.240Z,2.70
2023-03-10T12:40:18.407Z,2.80
2023-03-10T12:41:18.567Z,2.50
2023-03-10T12:42:18.720Z,2.60
2023-03-10T12:43:18.885Z,3.00
2023-03-10T12:44:19.053Z,3.40
2023-03-10T12:45:19.256Z,3.00
2023-03-10T12:46:19.494Z,3.20
2023-03-10T12:47:19.605Z,2.50
2023-03-10T12:48:19.785Z,3.10
2023-03-10T12:49:19.937Z,3.10
2023-03-10T12:50:20.120Z,2.60
2023-03-10T12:51:20.313Z,2.50
2023-03-10T12:52:20.483Z,2.60
2023-03-10T12:53:20.621Z,3.50
2023-03-10T12:54:20.768Z,3.10
2023-03-10T12:55:21.012Z,3.40
2023-03-10T12:56:21.161Z,3.20
2023-03-10T12:57:21.339Z,2.70
2023-03-10T12:58:21.499Z,3.80
2023-03-10T12:59:21.650Z,2.80
2023-03-10T13:00:21.839Z,2.50
2023-03-10T13:01:22.103Z,2.50
2023-03-10T13:02:22.174Z,2.70
2023-03-10T13:03:22.378Z,2.70
2023-03-10T13:04:22.587Z,3.40
2023-03-10T13:05:22.732Z,2.90
2023-03-10T13:06:22.877Z,3.20
2023-03-10T13:07:23.067Z,3.30
2023-03-10T13:08:23.224Z,3.00
2023-03-10T13:09:23.421Z,2.40
2023-03-10T13:10:23.564Z,2.50
2023-03-10T13:11:23.706Z,2.60
2023-03-10T13:12:23.880Z,2.90
2023-03-10T13:13:24.046Z,3.30
2023-03-10T13:14:24.242Z,2.80
2023-03-10T13:15:24.965Z,2.60
2023-03-10T13:16:24.563Z,3.10
2023-03-10T13:17:24.736Z,2.90